M I D A S
Marine Information and Data Acquisition System
Tripno 2251 of the Zeeleeuw from 2012-01-09 07:45:25 to 2012-01-09 16:54:30
Back to CruiseResearch ActivitiesStationsMapUnderway DataData graphs

EquipmentUnitsComment
TimeDGPSUTC
LatitudeDGPSDM.mWGS84
LongitudeDGPSDM.mWGS84
TemperatureSBE03/SBE38deg celciusITS90
ConductivitySBE21S/mITS90
SalinitySBE21 Practical Salinity Units
ChlorophylAChelsea fluorimeterg/lCalibrated in Aceton
Missing or incorrect values are displayed as -999
Sea surface data collected by the RV Zeeleeuw from 2012-01-09 07:41:39 to 2012-01-09 17:03:19
Time Latitude Longitude Temperature Conductivity Salinity ChlorophylA
2012-01-09 07:42:44 51°13.636 2°56.018 13.4946 0.07376 0.387066 -2.458615
2012-01-09 07:43:44 51°13.635 2°56.018 13.4926 0.073863 0.387642 -2.458615
2012-01-09 07:44:44 51°13.636 2°56.018 13.5017 0.07376 0.387105 -2.458615
2012-01-09 07:45:44 51°13.636 2°56.018 13.5035 0.073863 0.387688 -2.458615
2012-01-09 07:46:44 51°13.636 2°56.018 13.5054 0.07376 0.38715 -2.458615
2012-01-09 07:47:44 51°13.635 2°56.018 13.5091 0.07376 0.387176 -2.458615
2012-01-09 07:48:44 51°13.636 2°56.019 13.4951 0.07376 0.387195 -2.458615
2012-01-09 07:49:44 51°13.636 2°56.019 13.5078 0.07376 0.387221 -2.458615
2012-01-09 07:50:44 51°13.634 2°56.018 13.5177 0.07376 0.387247 -2.458615
2012-01-09 07:51:43 51°13.64 2°55.997 13.417 0.07376 0.387273 -2.458615
2012-01-09 07:52:44 51°13.66 2°55.898 13.4665 0.073657 0.386729 -2.458615
2012-01-09 07:53:44 51°13.691 2°55.795 13.4503 0.073657 0.386761 -2.458615
2012-01-09 07:54:44 51°13.736 2°55.707 13.473 0.073657 0.386793 -2.458615
2012-01-09 07:55:44 51°13.803 2°55.647 13.4649 0.073554 0.386262 -2.458615
2012-01-09 07:56:44 51°13.892 2°55.636 13.4708 0.073451 0.385736 -2.458615
2012-01-09 07:57:44 51°13.964 2°55.662 13.4993 0.073451 0.385775 -2.458615
2012-01-09 07:58:44 51°13.967 2°55.635 13.2893 0.073451 0.385743 -2.458615
2012-01-09 07:59:44 51°14.003 2°55.566 13.4452 0.073451 0.385904 -2.458615
2012-01-09 08:00:43 51°14.092 2°55.474 13.3221 0.073451 0.385911 -2.458615
2012-01-09 08:01:44 51°14.216 2°55.352 13.2868 0.073451 0.385937 -2.458615
2012-01-09 08:02:44 51°14.355 2°55.217 13.2224 0.073451 0.385988 -2.458615
2012-01-09 08:03:44 51°14.509 2°55.072 13.1444 0.073451 0.386027 -2.458615
2012-01-09 08:04:42 51°14.654 2°54.9 13.0602 0.073451 0.386066 -2.458615
2012-01-09 08:05:41 51°14.809 2°54.711 13.0359 0.073349 0.385553 -2.458615
2012-01-09 08:06:44 51°14.976 2°54.516 13.0828 0.073349 0.385605 -2.458615
2012-01-09 08:07:42 51°15.064 2°54.248 13.0482 0.073349 0.385631 -2.458615
2012-01-09 08:08:41 51°15.118 2°53.944 12.9871 0.073349 0.38567 -2.458615
2012-01-09 08:09:41 51°15.18 2°53.635 13.024 0.073349 0.385741 -2.458615
2012-01-09 08:10:41 51°15.226 2°53.319 13.0273 0.073349 0.385786 -2.458615
2012-01-09 08:11:41 51°15.234 2°52.989 10.4099 0.086612 0.459837 -2.458615
2012-01-09 08:12:41 51°15.255 2°52.661 8.1335 3.401099 31.31562 -2.458615
2012-01-09 08:13:41 51°15.279 2°52.332 8.0555 3.456904 32.744861 -2.458615
2012-01-09 08:14:41 51°15.3 2°51.997 8.025 3.481441 33.127689 -2.458615
2012-01-09 08:15:41 51°15.296 2°51.655 7.9979 3.492726 33.309477 -2.458615
2012-01-09 08:16:41 51°15.273 2°51.311 7.9829 3.496867 33.383862 -2.458615
2012-01-09 08:17:41 51°15.218 2°50.972 7.9891 3.506496 33.506155 -2.458615
2012-01-09 08:18:41 51°15.171 2°50.631 7.9898 3.504632 33.491623 -2.458615
2012-01-09 08:19:41 51°15.121 2°50.291 7.9891 3.503804 33.489835 -2.458615
2012-01-09 08:20:41 51°15.062 2°49.954 7.9886 3.50515 33.51202 -2.458615
2012-01-09 08:21:41 51°15.029 2°49.611 7.9966 3.507946 33.541721 -2.458615
2012-01-09 08:22:41 51°15.013 2°49.273 7.9983 3.508981 33.555356 -2.458615
2012-01-09 08:23:41 51°15.014 2°48.937 8.0009 3.507842 33.539743 -2.458615
2012-01-09 08:24:41 51°15.008 2°48.6 8.0084 3.51043 33.57076 -2.458615
2012-01-09 08:25:41 51°14.997 2°48.264 8.0185 3.51395 33.602018 -2.458615
2012-01-09 08:26:41 51°14.978 2°47.927 8.0351 3.516228 33.611275 -2.458615
2012-01-09 08:27:41 51°14.964 2°47.588 8.0436 3.523061 33.675954 -2.458615
2012-01-09 08:28:41 51°14.955 2°47.252 8.0612 3.526892 33.706963 -2.458615
2012-01-09 08:29:41 51°14.943 2°46.92 8.0778 3.528445 33.708483 -2.458615
2012-01-09 08:30:41 51°14.894 2°46.596 8.1043 3.536831 33.780789 -2.458615
2012-01-09 08:31:41 51°14.806 2°46.292 8.1138 3.530929 33.700536 -2.458615
2012-01-09 08:32:41 51°14.686 2°46.014 8.1177 3.543353 33.818268 -2.458615
2012-01-09 08:33:41 51°14.569 2°45.734 8.096 3.541179 33.804898 -2.458615
2012-01-09 08:34:41 51°14.461 2°45.447 8.0799 3.535071 33.755931 -2.458615
2012-01-09 08:35:41 51°14.352 2°45.159 8.0674 3.530929 33.726061 -2.458615
2012-01-09 08:36:41 51°14.229 2°44.885 8.0668 3.52803 33.704086 -2.458615
2012-01-09 08:37:41 51°14.103 2°44.616 8.0691 3.526788 33.693534 -2.458615
2012-01-09 08:38:41 51°13.977 2°44.346 8.0757 3.529169 33.714418 -2.458615
2012-01-09 08:39:41 51°13.855 2°44.072 8.0937 3.531551 33.732657 -2.458615
2012-01-09 08:40:41 51°13.74 2°43.789 8.1134 3.534657 33.752416 -2.458615
2012-01-09 08:41:41 51°13.635 2°43.496 8.1252 3.532896 33.714369 -2.458615
2012-01-09 08:42:41 51°13.523 2°43.209 8.1389 3.539315 33.771021 -2.458615
2012-01-09 08:43:41 51°13.413 2°42.918 8.1491 3.539936 33.764402 -2.458615
2012-01-09 08:44:41 51°13.302 2°42.624 8.1605 3.539833 33.757144 -2.458615
2012-01-09 08:45:41 51°13.183 2°42.331 8.1643 3.540247 33.752737 -2.458615
2012-01-09 08:46:41 51°13.063 2°42.043 8.175 3.540661 33.754488 -2.458615
2012-01-09 08:47:41 51°12.944 2°41.755 8.1867 3.539418 33.730774 -2.458615
2012-01-09 08:48:41 51°12.825 2°41.47 8.1962 3.544078 33.766949 -2.458615
2012-01-09 08:49:41 51°12.712 2°41.178 8.2087 3.54387 33.755089 -2.458615
2012-01-09 08:50:41 51°12.611 2°40.878 8.2187 3.542317 33.727232 -2.458615
2012-01-09 08:51:41 51°12.498 2°40.587 8.2289 3.541075 33.704436 -2.458615
2012-01-09 08:52:41 51°12.381 2°40.302 8.2401 3.543042 33.715607 -2.458615
2012-01-09 08:53:41 51°12.277 2°40.005 8.2444 3.546872 33.747364 -2.458615
2012-01-09 08:54:41 51°12.173 2°39.708 8.2503 3.54563 33.728961 -2.458615
2012-01-09 08:55:41 51°12.059 2°39.421 8.2589 3.544905 33.716039 -2.458615
2012-01-09 08:56:41 51°11.949 2°39.132 8.2664 3.543766 33.697867 -2.458615
2012-01-09 08:57:41 51°11.831 2°38.852 8.2726 3.541799 33.671824 -2.458615
2012-01-09 08:58:41 51°11.724 2°38.562 8.278 3.553188 33.78345 -2.458615
2012-01-09 08:59:41 51°11.613 2°38.275 8.2863 3.552774 33.774687 -2.458615
2012-01-09 09:00:41 51°11.498 2°37.991 8.3026 3.554741 33.786709 -2.458615
2012-01-09 09:01:41 51°11.394 2°37.697 8.3165 3.557433 33.801123 -2.458615
2012-01-09 09:02:41 51°11.285 2°37.405 8.3298 3.560435 33.817933 -2.458615
2012-01-09 09:03:41 51°11.167 2°37.123 8.3428 3.562817 33.830804 -2.458615
2012-01-09 09:04:41 51°11.045 2°36.849 8.351 3.564888 33.84039 -2.458615
2012-01-09 09:05:41 51°10.869 2°36.675 8.3606 3.56613 33.847366 -2.458615
2012-01-09 09:06:41 51°10.668 2°36.719 8.3774 3.567683 33.853236 -2.458615
2012-01-09 09:07:41 51°10.492 2°36.878 8.3733 3.56934 33.85406 -2.458615
2012-01-09 09:08:41 51°10.374 2°37.139 8.3566 3.566647 33.834424 -2.458615
2012-01-09 09:09:41 51°10.37 2°37.437 8.3344 3.561574 33.803665 -2.458615
2012-01-09 09:10:41 51°10.488 2°37.677 8.3326 3.558468 33.784015 -2.458615
2012-01-09 09:11:41 51°10.579 2°37.954 8.3346 3.558675 33.782699 -2.458615
2012-01-09 09:12:41 51°10.668 2°38.233 8.3303 3.558468 33.784015 -2.458615
2012-01-09 09:13:41 51°10.688 2°38.509 8.3343 3.557433 33.771335 -2.458615
2012-01-09 09:14:41 51°10.552 2°38.733 8.3035 3.552463 33.720629 -2.458615
2012-01-09 09:15:41 51°10.405 2°38.953 8.266 3.550599 33.733314 -2.458615
2012-01-09 09:16:41 51°10.217 2°38.988 8.2185 3.543248 33.690644 -2.458615
2012-01-09 09:17:41 51°10.078 2°38.753 8.1852 3.531239 33.605626 -2.458615
2012-01-09 09:18:41 51°9.974 2°38.465 8.15 3.523784 33.565201 -2.458615
2012-01-09 09:19:41 51°9.877 2°38.168 8.1263 3.516641 33.515768 -2.458615
2012-01-09 09:20:41 51°9.779 2°37.873 8.1112 3.509083 33.461024 -2.458615
2012-01-09 09:21:41 51°9.674 2°37.585 8.1001 3.502147 33.404961 -2.458615
2012-01-09 09:22:41 51°9.573 2°37.295 8.1077 3.505253 33.431774 -2.458615
2012-01-09 09:23:41 51°9.484 2°36.998 8.0403 3.505046 33.433942 -2.458615
2012-01-09 09:24:41 51°9.401 2°36.695 8.1036 3.478646 33.137854 -2.458615
2012-01-09 09:25:41 51°9.316 2°36.396 8.0466 3.446969 32.849159 -2.458615
2012-01-09 09:26:41 51°9.221 2°36.103 8.0351 3.41695 32.560639 -2.458615
2012-01-09 09:27:41 51°9.135 2°35.803 8.0365 3.387657 32.256926 -2.458615
2012-01-09 09:28:41 51°9.041 2°35.511 8.088 3.387035 32.236038 -2.458615
2012-01-09 09:29:41 51°8.954 2°35.214 8.0666 3.40163 32.360601 -2.458615
2012-01-09 09:30:41 51°8.86 2°34.922 8.0889 3.395005 32.299955 -2.458615
2012-01-09 09:31:41 51°8.776 2°34.623 8.1123 3.400698 32.327137 -2.458615
2012-01-09 09:32:41 51°8.687 2°34.327 8.1465 3.435064 32.666919 -2.458615
2012-01-09 09:33:41 51°8.589 2°34.04 8.1111 3.434546 32.665712 -2.458615
2012-01-09 09:34:41 51°8.5 2°33.748 8.131 3.429474 32.621519 -2.458615
2012-01-09 09:35:41 51°8.425 2°33.446 8.1679 3.446657 32.781661 -2.458615
2012-01-09 09:36:41 51°8.342 2°33.15 8.18 3.462082 32.933447 -2.458615
2012-01-09 09:37:41 51°8.323 2°32.847 8.1711 3.461978 32.913488 -2.458615
2012-01-09 09:38:41 51°8.477 2°32.674 8.1399 3.462703 32.928856 -2.458615
2012-01-09 09:39:41 51°8.642 2°32.789 8.2127 3.483408 33.153663 -2.458615
2012-01-09 09:40:41 51°8.801 2°32.982 8.2134 3.485788 33.13223 -2.458615
2012-01-09 09:41:41 51°8.962 2°33.173 8.1783 3.49055 33.17993 -2.458615
2012-01-09 09:42:41 51°9.117 2°33.377 8.2229 3.500489 33.268467 -2.458615
2012-01-09 09:43:41 51°9.275 2°33.574 8.3135 3.52192 33.447056 -2.458615
2012-01-09 09:44:41 51°9.431 2°33.782 8.3363 3.54418 33.645438 -2.458615
2012-01-09 09:45:41 51°9.584 2°33.998 8.4442 3.556914 33.720426 -2.458615
2012-01-09 09:46:41 51°9.733 2°34.219 8.4121 3.564887 33.75556 -2.458615
2012-01-09 09:47:41 51°9.887 2°34.432 8.3946 3.564266 33.769962 -2.458615
2012-01-09 09:48:41 51°10.043 2°34.642 8.4101 3.562091 33.761896 -2.458615
2012-01-09 09:49:41 51°10.192 2°34.867 8.4347 3.56468 33.777819 -2.458615
2012-01-09 09:50:41 51°10.341 2°35.089 8.4699 3.572859 33.833401 -2.458615
2012-01-09 09:51:41 51°10.497 2°35.295 8.4648 3.580832 33.890237 -2.458615
2012-01-09 09:52:41 51°10.644 2°35.517 8.4619 3.581453 33.897651 -2.458615
2012-01-09 09:53:41 51°10.798 2°35.726 8.4308 3.579176 33.89117 -2.458615
2012-01-09 09:54:41 51°10.958 2°35.923 8.4011 3.575138 33.87402 -2.458615
2012-01-09 09:55:41 51°11.128 2°36.094 8.3705 3.569857 33.851635 -2.458615
2012-01-09 09:56:41 51°11.296 2°36.267 8.3417 3.564266 33.815432 -2.458615
2012-01-09 09:57:41 51°11.466 2°36.438 8.3207 3.560021 33.796031 -2.458615
2012-01-09 09:58:41 51°11.635 2°36.612 8.3147 3.557536 33.783811 -2.458615
2012-01-09 09:59:41 51°11.799 2°36.797 8.2931 3.555155 33.771802 -2.458615
2012-01-09 10:00:41 51°11.97 2°36.963 8.2801 3.553188 33.767667 -2.458615
2012-01-09 10:01:41 51°12.139 2°37.136 8.2688 3.551428 33.761337 -2.458615
2012-01-09 10:02:41 51°12.308 2°37.306 8.2626 3.550496 33.759376 -2.458615
2012-01-09 10:03:41 51°12.475 2°37.484 8.2646 3.550496 33.76113 -2.458615
2012-01-09 10:04:41 51°12.636 2°37.68 8.2661 3.550703 33.761566 -2.458615
2012-01-09 10:05:41 51°12.797 2°37.875 8.2603 3.550082 33.76289 -2.458615
2012-01-09 10:06:41 51°12.961 2°38.066 8.2517 3.549357 33.759611 -2.458615
2012-01-09 10:07:41 51°13.122 2°38.261 8.2522 3.548633 33.754578 -2.458615
2012-01-09 10:08:41 51°13.282 2°38.462 8.2498 3.548529 33.755237 -2.458615
2012-01-09 10:09:41 51°13.444 2°38.658 8.2508 3.548736 33.760936 -2.458615
2012-01-09 10:10:41 51°13.61 2°38.846 8.2764 3.550496 33.772533 -2.458615
2012-01-09 10:11:41 51°13.769 2°39.05 8.3257 3.557226 33.807707 -2.458615
2012-01-09 10:12:41 51°13.916 2°39.276 8.3626 3.56613 33.861402 -2.458615
2012-01-09 10:13:41 51°14.068 2°39.497 8.376 3.571514 33.892787 -2.458615
2012-01-09 10:14:41 51°14.219 2°39.721 8.3907 3.575242 33.914563 -2.458615
2012-01-09 10:15:41 51°14.372 2°39.938 8.3899 3.576898 33.923261 -2.458615
2012-01-09 10:16:41 51°14.522 2°40.16 8.4035 3.577727 33.929365 -2.458615
2012-01-09 10:17:41 51°14.671 2°40.386 8.406 3.580936 33.95356 -2.458615
2012-01-09 10:18:41 51°14.825 2°40.603 8.4027 3.581972 33.962722 -2.458615
2012-01-09 10:19:41 51°14.977 2°40.823 8.3974 3.581972 33.964479 -2.458615
2012-01-09 10:20:41 51°15.147 2°40.992 8.3884 3.580833 33.959495 -2.458615
2012-01-09 10:21:41 51°15.324 2°41.148 8.3586 3.578452 33.949307 -2.458615
2012-01-09 10:22:41 51°15.503 2°41.267 8.3386 3.575138 33.938946 -2.458615
2012-01-09 10:23:41 51°15.69 2°41.231 8.3185 3.572343 33.927889 -2.458615
2012-01-09 10:24:41 51°15.878 2°41.173 8.3005 3.568512 33.911161 -2.458615
2012-01-09 10:25:41 51°16.015 2°40.997 8.2793 3.564681 33.890898 -2.458615
2012-01-09 10:26:41 51°16.006 2°40.711 8.2646 3.56054 33.862936 -2.458615
2012-01-09 10:27:41 51°15.917 2°40.441 8.2487 3.556294 33.828588 -2.458615
2012-01-09 10:28:41 51°15.813 2°40.18 8.2247 3.551842 33.79555 -2.458615
2012-01-09 10:29:41 51°15.702 2°39.927 8.2219 3.547908 33.767094 -2.458615
2012-01-09 10:30:41 51°15.597 2°39.669 8.2155 3.545423 33.746066 -2.458615
2012-01-09 10:31:41 51°15.487 2°39.417 8.2183 3.543663 33.734459 -2.458615
2012-01-09 10:32:41 51°15.381 2°39.163 8.226 3.546666 33.759214 -2.458615
2012-01-09 10:33:41 51°15.281 2°38.907 8.2361 3.547597 33.762051 -2.458615
2012-01-09 10:34:41 51°15.176 2°38.661 8.2445 3.549357 33.772773 -2.458615
2012-01-09 10:35:41 51°15.06 2°38.432 8.2635 3.551428 33.786778 -2.458615
2012-01-09 10:36:41 51°14.942 2°38.209 8.291 3.556191 33.815195 -2.458615
2012-01-09 10:37:41 51°14.828 2°37.986 8.3427 3.563438 33.861942 -2.458615
2012-01-09 10:38:41 51°14.709 2°37.772 8.4008 3.573896 33.919678 -2.458615
2012-01-09 10:39:41 51°14.604 2°37.544 8.4418 3.581558 33.950452 -2.458615
2012-01-09 10:40:41 51°14.512 2°37.308 8.4559 3.586838 33.973632 -2.458615
2012-01-09 10:41:41 51°14.414 2°37.077 8.4587 3.588288 33.975741 -2.458615
2012-01-09 10:42:41 51°14.317 2°36.844 8.4481 3.586838 33.965736 -2.458615
2012-01-09 10:43:41 51°14.22 2°36.614 8.4406 3.584042 33.945057 -2.458615
2012-01-09 10:44:41 51°14.115 2°36.39 8.437 3.581661 33.923476 -2.458615
2012-01-09 10:45:41 51°14.014 2°36.162 8.4546 3.581557 33.919756 -2.458615
2012-01-09 10:46:41 51°13.911 2°35.937 8.47 3.583835 33.927977 -2.458615
2012-01-09 10:47:41 51°13.813 2°35.707 8.4948 3.586424 33.940339 -2.458615
2012-01-09 10:48:41 51°13.703 2°35.496 8.5055 3.589323 33.951585 -2.458615
2012-01-09 10:49:41 51°13.531 2°35.399 8.5155 3.59129 33.960024 -2.458615
2012-01-09 10:50:41 51°13.374 2°35.268 8.5013 3.592222 33.960196 -2.458615
2012-01-09 10:51:41 51°13.27 2°35.049 8.4755 3.588391 33.942655 -2.458615
2012-01-09 10:52:41 51°13.176 2°34.821 8.4734 3.585077 33.922669 -2.458615
2012-01-09 10:53:41 51°13.1 2°34.574 8.4841 3.584663 33.919186 -2.458615
2012-01-09 10:54:41 51°13.025 2°34.328 8.5096 3.586941 33.931779 -2.458615
2012-01-09 10:55:41 51°12.948 2°34.08 8.528 3.590772 33.950202 -2.458615
2012-01-09 10:56:41 51°12.864 2°33.839 8.5553 3.594085 33.966667 -2.458615
2012-01-09 10:57:41 51°12.778 2°33.599 8.5876 3.59947 33.990881 -2.458615
2012-01-09 10:58:41 51°12.7 2°33.349 8.6043 3.603922 34.015777 -2.458615
2012-01-09 10:59:41 51°12.623 2°33.099 8.6098 3.606097 34.024612 -2.458615
2012-01-09 11:00:41 51°12.539 2°32.857 8.6184 3.607132 34.030233 -2.458615
2012-01-09 11:01:41 51°12.461 2°32.609 8.6336 3.608789 34.036252 -2.458615
2012-01-09 11:02:41 51°12.383 2°32.361 8.6435 3.610653 34.044441 -2.458615
2012-01-09 11:03:41 51°12.304 2°32.114 8.6562 3.612309 34.050454 -2.458615
2012-01-09 11:04:41 51°12.23 2°31.865 8.6606 3.613655 34.053208 -2.458615
2012-01-09 11:05:41 51°12.157 2°31.616 8.6595 3.613862 34.052757 -2.458615
2012-01-09 11:06:41 51°12.081 2°31.371 8.6741 3.612309 34.038221 -2.458615
2012-01-09 11:07:41 51°12.01 2°31.124 8.7025 3.614483 34.041801 -2.458615
2012-01-09 11:08:41 51°11.953 2°30.87 8.7438 3.619143 34.056574 -2.458615
2012-01-09 11:09:41 51°11.899 2°30.62 8.7746 3.624942 34.078888 -2.458615
2012-01-09 11:10:41 51°11.843 2°30.372 8.7849 3.628255 34.092621 -2.458615
2012-01-09 11:11:41 51°11.775 2°30.136 8.789 3.629601 34.097107 -2.458615
2012-01-09 11:12:41 51°11.712 2°29.902 8.7913 3.630015 34.097951 -2.458615
2012-01-09 11:13:41 51°11.654 2°29.663 8.7963 3.628669 34.082138 -2.458615
2012-01-09 11:14:41 51°11.603 2°29.418 8.801 3.628669 34.081267 -2.458615
2012-01-09 11:15:41 51°11.576 2°29.159 8.7973 3.628876 34.079948 -2.458615
2012-01-09 11:16:41 51°11.544 2°28.901 8.7882 3.62753 34.06588 -2.458615
2012-01-09 11:17:41 51°11.505 2°28.645 8.7831 3.626184 34.059646 -2.458615
2012-01-09 11:18:41 51°11.467 2°28.389 8.7692 3.626184 34.070095 -2.458615
2012-01-09 11:19:41 51°11.436 2°28.131 8.7625 3.625356 34.069274 -2.458615
2012-01-09 11:20:41 51°11.418 2°27.869 8.7607 3.624838 34.069088 -2.458615
2012-01-09 11:21:41 51°11.463 2°27.614 8.7562 3.62432 34.065416 -2.458615
2012-01-09 11:22:41 51°11.614 2°27.46 8.7455 3.623492 34.062851 -2.458615
2012-01-09 11:23:41 51°11.781 2°27.325 8.7387 3.621317 34.054046 -2.458615
2012-01-09 11:24:41 51°11.965 2°27.239 8.7276 3.624838 34.093506 -2.458615
2012-01-09 11:25:41 51°12.166 2°27.214 8.7215 3.623078 34.087299 -2.458615
2012-01-09 11:26:41 51°12.372 2°27.306 8.7175 3.622353 34.080584 -2.458615
2012-01-09 11:27:41 51°12.576 2°27.447 8.7107 3.621214 34.077386 -2.458615
2012-01-09 11:28:41 51°12.781 2°27.588 8.7126 3.6208 34.074795 -2.458615
2012-01-09 11:29:41 51°12.983 2°27.748 8.7183 3.620903 34.074134 -2.458615
2012-01-09 11:30:41 51°13.17 2°27.948 8.7174 3.621421 34.074318 -2.458615
2012-01-09 11:31:41 51°13.34 2°28.19 8.7211 3.621111 34.076302 -2.458615
2012-01-09 11:32:41 51°13.51 2°28.434 8.7265 3.621835 34.077782 -2.458615
2012-01-09 11:33:41 51°13.677 2°28.684 8.7462 3.623492 34.088144 -2.458615
2012-01-09 11:34:41 51°13.846 2°28.923 8.7541 3.625977 34.097572 -2.458615
2012-01-09 11:35:41 51°14.011 2°29.175 8.7552 3.627531 34.104226 -2.458615
2012-01-09 11:36:41 51°14.18 2°29.42 8.7535 3.627634 34.105309 -2.458615
2012-01-09 11:37:41 51°14.344 2°29.674 8.752 3.627116 34.101637 -2.458615
2012-01-09 11:38:41 51°14.508 2°29.927 8.7426 3.626495 34.098627 -2.458615
2012-01-09 11:39:41 51°14.672 2°30.185 8.7329 3.625045 34.09131 -2.458615
2012-01-09 11:40:41 51°14.848 2°30.413 8.7156 3.622664 34.080345 -2.458615
2012-01-09 11:41:41 51°15.04 2°30.605 8.7112 3.621007 34.072599 -2.458615
2012-01-09 11:42:41 51°15.228 2°30.815 8.715 3.615829 34.023625 -2.458615
2012-01-09 11:43:41 51°15.394 2°31.077 8.7018 3.615208 34.017121 -2.458615
2012-01-09 11:44:41 51°15.559 2°31.338 8.6945 3.613862 34.011742 -2.458615
2012-01-09 11:45:41 51°15.73 2°31.592 8.692 3.617072 34.048847 -2.458615
2012-01-09 11:46:41 51°15.896 2°31.854 8.6888 3.618625 34.070355 -2.458615
2012-01-09 11:47:41 51°16.066 2°32.106 8.686 3.617694 34.066705 -2.458615
2012-01-09 11:48:41 51°16.234 2°32.36 8.6741 3.616969 34.06173 -2.458615
2012-01-09 11:49:41 51°16.4 2°32.621 8.666 3.615726 34.057443 -2.458615
2012-01-09 11:50:41 51°16.568 2°32.873 8.6593 3.614484 34.053155 -2.458615
2012-01-09 11:51:41 51°16.659 2°33.101 8.6615 3.614069 34.05056 -2.458615
2012-01-09 11:52:41 51°16.626 2°33.232 8.6636 3.614276 34.051857 -2.458615
2012-01-09 11:53:41 51°16.582 2°33.253 8.6646 3.614794 34.055537 -2.458615
2012-01-09 11:54:41 51°16.531 2°33.176 8.6672 3.614794 34.057285 -2.458615
2012-01-09 11:55:41 51°16.442 2°33.069 8.6718 3.615208 34.059005 -2.458615
2012-01-09 11:56:41 51°16.349 2°32.939 8.6757 3.615933 34.059613 -2.458615
2012-01-09 11:57:41 51°16.258 2°32.799 8.674 3.617176 34.071763 -2.458615
2012-01-09 11:58:41 51°16.168 2°32.656 8.6779 3.617072 34.071551 -2.458615
2012-01-09 11:59:41 51°16.078 2°32.515 8.6834 3.617383 34.071312 -2.458615
2012-01-09 12:00:41 51°16.021 2°32.446 8.6889 3.618522 34.076258 -2.458615
2012-01-09 12:01:41 51°15.985 2°32.381 8.692 3.619143 34.081021 -2.458615
2012-01-09 12:02:41 51°15.989 2°32.287 8.6963 3.619972 34.084458 -2.458615
2012-01-09 12:03:41 51°16.001 2°32.225 8.6971 3.619972 34.084458 -2.458615
2012-01-09 12:04:41 51°16.01 2°32.151 8.6977 3.620179 34.08488 -2.458615
2012-01-09 12:05:41 51°16.053 2°32.083 8.7008 3.620593 34.084851 -2.458615
2012-01-09 12:06:41 51°16.076 2°32.037 8.7003 3.620386 34.084429 -2.458615
2012-01-09 12:07:41 51°16.066 2°31.998 8.7016 3.620386 34.082682 -2.458615
2012-01-09 12:08:41 51°16.047 2°31.95 8.6987 3.620593 34.082231 -2.458615
2012-01-09 12:09:41 51°16.028 2°31.893 8.7055 3.620075 34.079428 -2.458615
2012-01-09 12:10:41 51°16.012 2°31.834 8.7049 3.620386 34.080062 -2.458615
2012-01-09 12:11:41 51°15.992 2°31.776 8.7116 3.620696 34.080696 -2.458615
2012-01-09 12:12:41 51°15.972 2°31.715 8.7174 3.621525 34.083259 -2.458615
2012-01-09 12:13:41 51°15.954 2°31.654 8.7222 3.622353 34.088441 -2.458615
2012-01-09 12:14:41 51°15.936 2°31.592 8.7266 3.623285 34.089467 -2.458615
2012-01-09 12:15:41 51°15.917 2°31.53 8.7374 3.624113 34.094648 -2.458615
2012-01-09 12:16:41 51°15.897 2°31.47 8.745 3.62546 34.098263 -2.458615
2012-01-09 12:17:41 51°15.885 2°31.407 8.751 3.626806 34.107114 -2.458615
2012-01-09 12:18:41 51°15.891 2°31.334 8.759 3.627945 34.109432 -2.458615
2012-01-09 12:19:41 51°15.933 2°31.271 8.7666 3.629084 34.116112 -2.458615
2012-01-09 12:20:41 51°16.013 2°31.257 8.7712 3.630016 34.120625 -2.458615
2012-01-09 12:21:41 51°16.104 2°31.314 8.7774 3.631258 34.128386 -2.458615
2012-01-09 12:22:41 51°16.179 2°31.433 8.7736 3.631776 34.129437 -2.458615
2012-01-09 12:23:41 51°16.218 2°31.591 8.7628 3.631051 34.125347 -2.458615
2012-01-09 12:24:41 51°16.24 2°31.737 8.7596 3.629912 34.123905 -2.458615
2012-01-09 12:25:41 51°16.259 2°31.864 8.7564 3.629084 34.117858 -2.458615
2012-01-09 12:26:41 51°16.271 2°31.983 8.7509 3.628359 34.115511 -2.458615
2012-01-09 12:27:41 51°16.276 2°32.095 8.7473 3.627738 34.111629 -2.458615
2012-01-09 12:28:41 51°16.274 2°32.197 8.7448 3.627323 34.10904 -2.458615
2012-01-09 12:29:41 51°16.267 2°32.292 8.7397 3.626495 34.105609 -2.458615
2012-01-09 12:30:41 51°16.257 2°32.383 8.7379 3.626081 34.10302 -2.458615
2012-01-09 12:31:41 51°16.244 2°32.469 8.7373 3.625667 34.100431 -2.458615
2012-01-09 12:32:41 51°16.226 2°32.544 8.7373 3.62546 34.100009 -2.458615
2012-01-09 12:33:41 51°16.207 2°32.609 8.7349 3.62546 34.100882 -2.458615
2012-01-09 12:34:41 51°16.171 2°32.662 8.7379 3.625356 34.098052 -2.458615
2012-01-09 12:35:41 51°16.152 2°32.704 8.7359 3.625356 34.098925 -2.458615
2012-01-09 12:36:41 51°16.144 2°32.751 8.7389 3.625252 34.097841 -2.458615
2012-01-09 12:37:41 51°16.118 2°32.781 8.738 3.62546 34.09739 -2.458615
2012-01-09 12:38:41 51°16.053 2°32.789 8.7227 3.625977 34.095827 -2.458615
2012-01-09 12:39:41 51°16.011 2°32.818 8.731 3.62401 34.07873 -2.458615
2012-01-09 12:40:41 51°15.985 2°32.851 8.7335 3.622249 34.055081 -2.458615
2012-01-09 12:41:41 51°15.958 2°32.865 8.7373 3.623285 34.054586 -2.458615
2012-01-09 12:42:41 51°15.918 2°32.789 8.7357 3.616968 33.989405 -2.458615
2012-01-09 12:43:41 51°16.022 2°32.784 8.7567 3.617382 33.991127 -2.458615
2012-01-09 12:44:41 51°16.097 2°33.003 8.7425 3.619039 34.002362 -2.458615
2012-01-09 12:45:41 51°16.11 2°33.285 8.7357 3.61821 34.004137 -2.458615
2012-01-09 12:46:41 51°16.099 2°33.619 8.734 3.617175 34.002878 -2.458615
2012-01-09 12:47:41 51°16.084 2°33.98 8.7316 3.61645 33.997906 -2.458615
2012-01-09 12:48:41 51°16.055 2°34.338 8.7518 3.617693 34.003072 -2.458615
2012-01-09 12:49:41 51°16.033 2°34.689 8.7894 3.621628 34.024205 -2.458615
2012-01-09 12:50:41 51°16.042 2°35.04 8.8107 3.628358 34.056263 -2.458615
2012-01-09 12:51:41 51°16.13 2°35.374 8.821 3.631672 34.076083 -2.458615
2012-01-09 12:52:41 51°16.273 2°35.655 8.8203 3.632811 34.084497 -2.458615
2012-01-09 12:53:41 51°16.421 2°35.935 8.8135 3.633122 34.084261 -2.458615
2012-01-09 12:54:41 51°16.561 2°36.232 8.8154 3.6325 34.082123 -2.458615
2012-01-09 12:55:41 51°16.704 2°36.528 8.8134 3.63219 34.080619 -2.458615
2012-01-09 12:56:41 51°16.845 2°36.824 8.8104 3.632293 34.08344 -2.458615
2012-01-09 12:57:41 51°16.982 2°37.128 8.814 3.632397 34.083651 -2.458615
2012-01-09 12:58:41 51°17.123 2°37.425 8.803 3.632397 34.083651 -2.458615
2012-01-09 12:59:41 51°17.28 2°37.709 8.8015 3.631361 34.081538 -2.458615
2012-01-09 13:00:41 51°17.437 2°37.985 8.7997 3.631154 34.080245 -2.458615
2012-01-09 13:01:41 51°17.592 2°38.266 8.7869 3.630429 34.079636 -2.458615
2012-01-09 13:02:41 51°17.751 2°38.545 8.775 3.628669 34.07256 -2.458615
2012-01-09 13:03:41 51°17.91 2°38.825 8.7631 3.626702 34.064187 -2.458615
2012-01-09 13:04:41 51°18.063 2°39.108 8.7424 3.625252 34.058611 -2.458615
2012-01-09 13:05:41 51°18.245 2°39.301 8.7118 3.621628 34.050324 -2.458615
2012-01-09 13:06:41 51°18.41 2°39.177 8.708 3.618314 34.035695 -2.458615
2012-01-09 13:07:41 51°18.402 2°38.914 8.6858 3.616761 34.028152 -2.458615
2012-01-09 13:08:41 51°18.357 2°38.639 8.673 3.613655 34.010445 -2.458615
2012-01-09 13:09:41 51°18.328 2°38.354 8.6897 3.612516 34.003746 -2.458615
2012-01-09 13:10:41 51°18.313 2°38.067 8.7007 3.614379 34.006706 -2.458615
2012-01-09 13:11:41 51°18.312 2°37.775 8.7312 3.615622 34.00926 -2.458615
2012-01-09 13:12:41 51°18.31 2°37.483 8.7668 3.620074 34.022757 -2.458615
2012-01-09 13:13:41 51°18.314 2°37.195 8.7609 3.624009 34.039529 -2.458615
2012-01-09 13:14:41 51°18.33 2°36.907 8.737 3.622663 34.0359 -2.458615
2012-01-09 13:15:41 51°18.341 2°36.621 8.7205 3.619453 34.022353 -2.458615
2012-01-09 13:16:41 51°18.359 2°36.336 8.6917 3.616657 34.012258 -2.458615
2012-01-09 13:17:41 51°18.379 2°36.051 8.6744 3.613033 33.997841 -2.458615
2012-01-09 13:18:41 51°18.406 2°35.765 8.6567 3.610134 33.986646 -2.458615
2012-01-09 13:19:41 51°18.425 2°35.48 8.6414 3.607856 33.976724 -2.458615
2012-01-09 13:20:41 51°18.461 2°35.199 8.6324 3.606096 33.969608 -2.458615
2012-01-09 13:21:41 51°18.499 2°34.919 8.6257 3.604853 33.967045 -2.458615
2012-01-09 13:22:41 51°18.534 2°34.635 8.6215 3.603921 33.963378 -2.458615
2012-01-09 13:23:41 51°18.569 2°34.35 8.6225 3.603404 33.958822 -2.458615
2012-01-09 13:24:41 51°18.601 2°34.067 8.6285 3.603404 33.957079 -2.458615
2012-01-09 13:25:41 51°18.645 2°33.786 8.6342 3.603818 33.957934 -2.458615
2012-01-09 13:26:41 51°18.699 2°33.511 8.6513 3.604853 33.961815 -2.458615
2012-01-09 13:27:41 51°18.881 2°33.494 8.6819 3.607338 33.96346 -2.458615
2012-01-09 13:28:41 51°19.025 2°33.773 8.6658 3.61003 33.977722 -2.458615
2012-01-09 13:29:41 51°19.175 2°34.064 8.6546 3.608063 33.971923 -2.458615
2012-01-09 13:30:41 51°19.318 2°34.362 8.6392 3.606614 33.965448 -2.458615
2012-01-09 13:31:41 51°19.468 2°34.648 8.6206 3.604646 33.960516 -2.458615
2012-01-09 13:32:41 51°19.614 2°34.938 8.5907 3.601436 33.949527 -2.458615
2012-01-09 13:33:41 51°19.764 2°35.222 8.5771 3.597916 33.933527 -2.458615
2012-01-09 13:34:41 51°19.906 2°35.516 8.5546 3.595431 33.923148 -2.458615
2012-01-09 13:35:41 51°20.054 2°35.8 8.5394 3.592739 33.913206 -2.458615
2012-01-09 13:36:41 51°20.204 2°36.079 8.526 3.59015 33.9026 -2.458615
2012-01-09 13:37:41 51°20.35 2°36.365 8.5111 3.588079 33.89219 -2.458615
2012-01-09 13:38:41 51°20.497 2°36.647 8.5037 3.586112 33.885483 -2.458615
2012-01-09 13:39:41 51°20.637 2°36.941 8.4985 3.585077 33.879838 -2.458615
2012-01-09 13:40:41 51°20.785 2°37.221 8.4923 3.583834 33.871141 -2.458615
2012-01-09 13:41:41 51°20.929 2°37.51 8.4815 3.582799 33.867239 -2.458615
2012-01-09 13:42:41 51°21.078 2°37.791 8.4678 3.580935 33.858118 -2.458615
2012-01-09 13:43:41 51°21.219 2°38.08 8.4492 3.578657 33.849002 -2.458615
2012-01-09 13:44:41 51°21.364 2°38.361 8.4546 3.576069 33.846221 -2.458615
2012-01-09 13:45:41 51°21.515 2°38.639 8.4383 3.574205 33.838835 -2.458615
2012-01-09 13:46:41 51°21.665 2°38.913 8.4384 3.57317 33.833176 -2.458615
2012-01-09 13:47:41 51°21.823 2°39.182 8.4363 3.572859 33.832527 -2.458615
2012-01-09 13:48:41 51°21.982 2°39.445 8.441 3.57317 33.835799 -2.458615
2012-01-09 13:49:41 51°22.142 2°39.715 8.4496 3.574309 33.839925 -2.458615
2012-01-09 13:50:41 51°22.296 2°39.983 8.4635 3.575862 33.847537 -2.458615
2012-01-09 13:51:41 51°22.45 2°40.255 8.4857 3.577622 33.857326 -2.458615
2012-01-09 13:52:41 51°22.605 2°40.522 8.493 3.580935 33.871219 -2.458615
2012-01-09 13:53:41 51°22.762 2°40.79 8.5131 3.58311 33.881859 -2.458615
2012-01-09 13:54:41 51°22.916 2°41.061 8.5319 3.585388 33.890962 -2.458615
2012-01-09 13:55:41 51°23.074 2°41.329 8.5385 3.58808 33.90354 -2.458615
2012-01-09 13:56:41 51°23.233 2°41.597 8.5566 3.590047 33.914607 -2.458615
2012-01-09 13:57:41 51°23.387 2°41.874 8.5803 3.593153 33.927156 -2.458615
2012-01-09 13:58:41 51°23.548 2°42.141 8.6026 3.596674 33.942298 -2.458615
2012-01-09 13:59:41 51°23.709 2°42.405 8.6218 3.59978 33.954827 -2.458615
2012-01-09 14:00:41 51°23.864 2°42.682 8.6325 3.602576 33.967579 -2.458615
2012-01-09 14:01:41 51°24.019 2°42.954 8.6539 3.604336 33.972954 -2.458615
2012-01-09 14:02:41 51°24.18 2°43.221 8.6529 3.605889 33.980516 -2.458615
2012-01-09 14:03:41 51°24.338 2°43.49 8.6615 3.607442 33.987204 -2.458615
2012-01-09 14:04:41 51°24.496 2°43.758 8.6758 3.608685 33.994122 -2.458615
2012-01-09 14:05:41 51°24.651 2°44.031 8.6796 3.610652 34.002529 -2.458615
2012-01-09 14:06:41 51°24.811 2°44.295 8.6912 3.612102 34.009869 -2.458615
2012-01-09 14:07:41 51°24.973 2°44.555 8.7013 3.613758 34.019375 -2.458615
2012-01-09 14:08:41 51°25.129 2°44.82 8.7126 3.615933 34.029068 -2.458615
2012-01-09 14:09:41 51°25.29 2°45.081 8.719 3.6179 34.040076 -2.458615
2012-01-09 14:10:41 51°25.448 2°45.345 8.7292 3.619557 34.049572 -2.458615
2012-01-09 14:11:41 51°25.547 2°45.671 8.7334 3.621317 34.062765 -2.458615
2012-01-09 14:12:41 51°25.644 2°46.001 8.7211 3.621835 34.069056 -2.458615
2012-01-09 14:13:41 51°25.737 2°46.329 8.7086 3.621007 34.068236 -2.458615
2012-01-09 14:14:41 51°25.833 2°46.653 8.6959 3.618729 34.058345 -2.458615
2012-01-09 14:15:41 51°25.951 2°46.965 8.6842 3.616554 34.046915 -2.458615
2012-01-09 14:16:41 51°26.064 2°47.281 8.6705 3.614587 34.036776 -2.458615
2012-01-09 14:17:41 51°26.171 2°47.599 8.6536 3.612309 34.027743 -2.458615
2012-01-09 14:18:41 51°26.278 2°47.917 8.6424 3.610134 34.01717 -2.458615
2012-01-09 14:19:41 51°26.386 2°48.242 8.6243 3.608271 34.008105 -2.458615
2012-01-09 14:20:41 51°26.499 2°48.558 8.6097 3.605268 33.994946 -2.458615
2012-01-09 14:21:41 51°26.61 2°48.874 8.5915 3.602679 33.980012 -2.458615
2012-01-09 14:22:41 51°26.716 2°49.196 8.5909 3.600401 33.970077 -2.458615
2012-01-09 14:23:41 51°26.823 2°49.521 8.587 3.600091 33.968563 -2.458615
2012-01-09 14:24:41 51°26.938 2°49.838 8.5965 3.600401 33.971824 -2.458615
2012-01-09 14:25:41 51°27.05 2°50.16 8.6099 3.602162 33.980692 -2.458615
2012-01-09 14:26:41 51°27.158 2°50.481 8.618 3.60475 33.996501 -2.458615
2012-01-09 14:27:41 51°27.267 2°50.802 8.631 3.607132 34.010131 -2.458615
2012-01-09 14:28:41 51°27.376 2°51.124 8.6461 3.609824 34.027886 -2.458615
2012-01-09 14:29:41 51°27.485 2°51.444 8.6594 3.611895 34.04174 -2.458615
2012-01-09 14:30:41 51°27.595 2°51.763 8.645 3.613034 34.050189 -2.458615
2012-01-09 14:31:41 51°27.699 2°52.087 8.6372 3.608063 34.001569 -2.458615
2012-01-09 14:32:41 51°27.81 2°52.403 8.6372 3.607132 33.99878 -2.458615
2012-01-09 14:33:41 51°27.922 2°52.72 8.6357 3.606925 33.996608 -2.458615
2012-01-09 14:34:41 51°28.034 2°53.038 8.6361 3.607442 34.000291 -2.458615
2012-01-09 14:35:41 51°28.138 2°53.362 8.6378 3.607753 34.001803 -2.458615
2012-01-09 14:36:41 51°28.247 2°53.682 8.6301 3.607339 34.005316 -2.458615
2012-01-09 14:37:41 51°28.35 2°53.979 8.6039 3.605682 33.998418 -2.458615
2012-01-09 14:38:41 51°28.417 2°54.152 8.5904 3.602679 33.988746 -2.458615
2012-01-09 14:39:41 51°28.458 2°54.273 8.5763 3.600091 33.976425 -2.458615
2012-01-09 14:40:41 51°28.489 2°54.399 8.5788 3.598848 33.970368 -2.458615
2012-01-09 14:41:41 51°28.496 2°54.538 8.5654 3.59802 33.965165 -2.458615
2012-01-09 14:42:41 51°28.495 2°54.632 8.5616 3.596881 33.958446 -2.458615
2012-01-09 14:43:41 51°28.494 2°54.705 8.5584 3.596777 33.962601 -2.458615
2012-01-09 14:44:41 51°28.455 2°54.794 8.5584 3.596363 33.961746 -2.458615
2012-01-09 14:45:41 51°28.395 2°54.839 8.5482 3.602576 34.028771 -2.458615
2012-01-09 14:46:41 51°28.352 2°54.857 8.5435 3.603508 34.045574 -2.458615
2012-01-09 14:47:41 51°28.311 2°54.857 8.5432 3.602991 34.042762 -2.458615
2012-01-09 14:48:41 51°28.272 2°54.848 8.5489 3.603198 34.044062 -2.458615
2012-01-09 14:49:41 51°28.238 2°54.822 8.5504 3.603405 34.04361 -2.458615
2012-01-09 14:50:41 51°28.209 2°54.785 8.5529 3.603819 34.045334 -2.458615
2012-01-09 14:51:41 51°28.18 2°54.751 8.5538 3.603922 34.045545 -2.458615
2012-01-09 14:52:41 51°28.146 2°54.712 8.5596 3.604233 34.047057 -2.458615
2012-01-09 14:53:41 51°28.113 2°54.666 8.5702 3.604958 34.047664 -2.458615
2012-01-09 14:54:41 51°28.08 2°54.621 8.5707 3.60589 34.050447 -2.458615
2012-01-09 14:55:41 51°28.047 2°54.576 8.5816 3.606822 34.054105 -2.458615
2012-01-09 14:56:41 51°28.014 2°54.533 8.5916 3.607961 34.054682 -2.458615
2012-01-09 14:57:41 51°27.979 2°54.492 8.5942 3.608478 34.054865 -2.458615
2012-01-09 14:58:41 51°27.943 2°54.453 8.5986 3.608892 34.055712 -2.458615
2012-01-09 14:59:41 51°27.911 2°54.41 8.6017 3.6091 34.05526 -2.458615
2012-01-09 15:00:41 51°27.888 2°54.355 8.5995 3.608996 34.052422 -2.458615
2012-01-09 15:01:41 51°27.865 2°54.295 8.5996 3.608685 34.050036 -2.458615
2012-01-09 15:02:41 51°27.841 2°54.241 8.5949 3.608271 34.044813 -2.458615
2012-01-09 15:03:41 51°27.818 2°54.182 8.5967 3.607546 34.04158 -2.458615
2012-01-09 15:04:41 51°27.792 2°54.126 8.5933 3.606821 34.03397 -2.458615
2012-01-09 15:05:41 51°27.763 2°54.073 8.5877 3.6062 34.030947 -2.458615
2012-01-09 15:06:41 51°27.736 2°54.018 8.5832 3.605372 34.024875 -2.458615
2012-01-09 15:07:41 51°27.712 2°53.962 8.5604 3.604336 34.017502 -2.458615
2012-01-09 15:08:41 51°27.686 2°53.909 8.553 3.601851 33.996655 -2.458615
2012-01-09 15:09:41 51°27.658 2°53.857 8.5616 3.598952 33.987192 -2.458615
2012-01-09 15:10:41 51°27.631 2°53.802 8.5434 3.599884 33.98299 -2.458615
2012-01-09 15:11:41 51°27.605 2°53.745 8.546 3.598331 33.971049 -2.458615
2012-01-09 15:12:41 51°27.579 2°53.694 8.5472 3.597916 33.970195 -2.458615
2012-01-09 15:13:41 51°27.552 2°53.64 8.5401 3.597606 33.966932 -2.458615
2012-01-09 15:14:41 51°27.54 2°53.575 8.5344 3.59657 33.960426 -2.458615
2012-01-09 15:15:41 51°27.539 2°53.504 8.5328 3.595017 33.952849 -2.458615
2012-01-09 15:16:41 51°27.533 2°53.432 8.5308 3.594396 33.948944 -2.458615
2012-01-09 15:17:41 51°27.51 2°53.371 8.5233 3.593568 33.94461 -2.458615
2012-01-09 15:18:41 51°27.481 2°53.314 8.5101 3.592636 33.94181 -2.458615
2012-01-09 15:19:41 51°27.452 2°53.257 8.5043 3.590772 33.930088 -2.458615
2012-01-09 15:20:41 51°27.425 2°53.2 8.4996 3.589944 33.925751 -2.458615
2012-01-09 15:21:41 51°27.399 2°53.143 8.4954 3.589115 33.922287 -2.458615
2012-01-09 15:22:41 51°27.381 2°53.08 8.4829 3.587355 33.913395 -2.458615
2012-01-09 15:23:41 51°27.387 2°53.011 8.4797 3.586009 33.906232 -2.458615
2012-01-09 15:24:41 51°27.417 2°52.94 8.477 3.585802 33.905803 -2.458615
2012-01-09 15:25:41 51°27.459 2°52.877 8.4768 3.585388 33.904069 -2.458615
2012-01-09 15:26:41 51°27.526 2°52.851 8.483 3.585388 33.904943 -2.458615
2012-01-09 15:27:41 51°27.595 2°52.873 8.4887 3.586527 33.910803 -2.458615
2012-01-09 15:28:41 51°27.652 2°52.938 8.4968 3.587873 33.917964 -2.458615
2012-01-09 15:29:41 51°27.684 2°53.025 8.5019 3.589219 33.925998 -2.458615
2012-01-09 15:30:41 51°27.695 2°53.119 8.499 3.589944 33.930996 -2.458615
2012-01-09 15:31:41 51°27.689 2°53.226 8.4975 3.590047 33.93121 -2.458615
2012-01-09 15:32:41 51°27.634 2°53.338 8.4963 3.589633 33.92773 -2.458615
2012-01-09 15:33:41 51°27.581 2°53.384 8.4877 3.589426 33.928175 -2.458615
2012-01-09 15:34:41 51°27.516 2°53.384 8.4808 3.588183 33.919482 -2.458615
2012-01-09 15:35:41 51°27.473 2°53.357 8.4781 3.586734 33.912981 -2.458615
2012-01-09 15:36:41 51°27.457 2°53.352 8.4715 3.585595 33.905373 -2.458615
2012-01-09 15:37:41 51°27.453 2°53.364 8.4649 3.584352 33.899297 -2.458615
2012-01-09 15:38:41 51°27.454 2°53.384 8.4681 3.583317 33.891028 -2.458615
2012-01-09 15:39:41 51°27.415 2°53.376 8.4676 3.583731 33.892762 -2.458615
2012-01-09 15:40:41 51°27.299 2°53.315 8.4574 3.583006 33.886886 -2.458615
2012-01-09 15:41:41 51°27.141 2°53.21 8.4474 3.581246 33.87536 -2.458615
2012-01-09 15:42:41 51°26.97 2°53.091 8.4451 3.577104 33.859743 -2.458615
2012-01-09 15:43:41 51°26.794 2°52.993 8.4262 3.575137 33.846025 -2.458615
2012-01-09 15:44:41 51°26.604 2°52.957 8.4206 3.572135 33.826643 -2.458615
2012-01-09 15:45:41 51°26.414 2°52.911 8.4078 3.570271 33.807016 -2.458615
2012-01-09 15:46:41 51°26.226 2°52.865 8.4066 3.567372 33.786965 -2.458615
2012-01-09 15:47:41 51°26.037 2°52.822 8.3921 3.563748 33.762762 -2.458615
2012-01-09 15:48:41 51°25.848 2°52.784 8.368 3.560124 33.735927 -2.458615
2012-01-09 15:49:41 51°25.66 2°52.746 8.3383 3.55329 33.689205 -2.458615
2012-01-09 15:50:41 51°25.474 2°52.695 8.2964 3.543662 33.632126 -2.458615
2012-01-09 15:51:41 51°25.286 2°52.646 8.265 3.537553 33.585096 -2.458615
2012-01-09 15:52:41 51°25.098 2°52.598 8.2342 3.530824 33.549762 -2.458615
2012-01-09 15:53:41 51°24.911 2°52.538 8.2191 3.52368 33.492587 -2.458615
2012-01-09 15:54:41 51°24.722 2°52.496 8.2126 3.51985 33.472995 -2.458615
2012-01-09 15:55:41 51°24.531 2°52.473 8.1769 3.516951 33.455406 -2.458615
2012-01-09 15:56:41 51°24.338 2°52.486 8.1672 3.512913 33.432725 -2.458615
2012-01-09 15:57:41 51°24.144 2°52.495 8.1602 3.510636 33.420815 -2.458615
2012-01-09 15:58:41 51°23.952 2°52.502 8.1482 3.508565 33.411091 -2.458615
2012-01-09 15:59:41 51°23.761 2°52.5 8.1393 3.505873 33.393916 -2.458615
2012-01-09 16:00:41 51°23.568 2°52.511 8.1163 3.504114 33.385728 -2.458615
2012-01-09 16:01:41 51°23.376 2°52.508 8.1169 3.502975 33.377152 -2.458615
2012-01-09 16:02:41 51°23.183 2°52.512 8.1096 3.502457 33.378633 -2.458615
2012-01-09 16:03:41 51°22.989 2°52.508 8.0865 3.499041 33.358985 -2.458615
2012-01-09 16:04:41 51°22.795 2°52.482 8.0666 3.494486 33.334217 -2.458615
2012-01-09 16:05:41 51°22.602 2°52.466 8.0377 3.491587 33.320027 -2.458615
2012-01-09 16:06:41 51°22.407 2°52.476 8.0162 3.484444 33.269507 -2.458615
2012-01-09 16:07:41 51°22.213 2°52.48 7.9719 3.477405 33.220036 -2.458615
2012-01-09 16:08:41 51°22.017 2°52.455 7.9725 3.466742 33.138126 -2.458615
2012-01-09 16:09:41 51°21.823 2°52.435 7.9777 3.46374 33.112326 -2.458615
2012-01-09 16:10:41 51°21.627 2°52.41 7.9764 3.464879 33.123549 -2.458615
2012-01-09 16:11:41 51°21.429 2°52.4 7.9855 3.465603 33.120831 -2.458615
2012-01-09 16:12:41 51°21.23 2°52.383 8.0087 3.468191 33.130952 -2.458615
2012-01-09 16:13:41 51°21.03 2°52.357 8.0398 3.473367 33.173723 -2.458615
2012-01-09 16:14:41 51°20.833 2°52.333 8.096 3.483926 33.256192 -2.458615
2012-01-09 16:15:41 51°20.635 2°52.318 8.3498 1.462596 12.829023 -2.458615
2012-01-09 16:16:41 51°20.438 2°52.303 8.5229 0.096076 0.708218 -2.458615
2012-01-09 16:17:41 51°20.24 2°52.29 8.6587 0.078287 0.571153 -2.458615
2012-01-09 16:18:41 51°20.043 2°52.284 8.7975 0.070473 0.510888 -2.458615
2012-01-09 16:19:41 51°19.846 2°52.275 8.9382 0.066257 0.47806 -2.458615
2012-01-09 16:20:41 51°19.648 2°52.26 9.0766 0.063378 0.455436 -2.458615
2012-01-09 16:21:41 51°19.45 2°52.246 9.1991 0.061116 0.437557 -2.458615
2012-01-09 16:22:41 51°19.251 2°52.236 9.3346 0.059265 0.422673 -2.458615
2012-01-09 16:23:41 51°19.053 2°52.23 9.4562 0.05762 0.409531 -2.458615
2012-01-09 16:24:41 51°18.855 2°52.222 9.5814 0.056284 0.3986 -2.458615
2012-01-09 16:25:41 51°18.656 2°52.21 9.6956 0.05505 0.388524 -2.458615
2012-01-09 16:26:41 51°18.459 2°52.221 9.8275 0.053919 0.379309 -2.458615
2012-01-09 16:27:41 51°18.261 2°52.239 9.9356 0.05289 0.370834 -2.458615
2012-01-09 16:28:41 51°18.064 2°52.26 10.0512 0.051965 0.363228 -2.458615
2012-01-09 16:29:41 51°17.867 2°52.264 10.1615 0.051245 0.357212 -2.458615
2012-01-09 16:30:41 51°17.668 2°52.267 10.2805 0.050526 0.351126 -2.458615
2012-01-09 16:31:41 51°17.472 2°52.307 10.3876 0.049806 0.345176 -2.458615
2012-01-09 16:32:41 51°17.289 2°52.427 10.4805 0.049086 0.339233 -2.458615
2012-01-09 16:33:41 51°17.106 2°52.545 10.5405 0.048572 0.334765 -2.458615
2012-01-09 16:34:41 51°16.919 2°52.645 10.6452 0.047955 0.329622 -2.458615
2012-01-09 16:35:41 51°16.74 2°52.78 10.7797 0.047441 0.325196 -2.458615
2012-01-09 16:36:41 51°16.553 2°52.894 10.8696 0.04703 0.321529 -2.458615
2012-01-09 16:37:41 51°16.364 2°53.002 10.9549 0.046619 0.317934 -2.458615
2012-01-09 16:38:41 51°16.176 2°53.116 11.0209 0.046207 0.314401 -2.458615
2012-01-09 16:39:41 51°16.001 2°53.267 11.125 0.045796 0.310921 -2.458615
2012-01-09 16:40:41 51°15.828 2°53.425 11.2563 0.045385 0.307376 -2.458615
2012-01-09 16:41:41 51°15.668 2°53.592 11.3741 0.045076 0.304653 -2.458615
2012-01-09 16:42:41 51°15.554 2°53.713 11.4441 0.044665 0.301098 -2.458615
2012-01-09 16:43:41 51°15.47 2°53.797 11.5034 0.044356 0.298365 -2.458615
2012-01-09 16:44:41 51°15.401 2°53.86 11.563 0.044048 0.295617 -2.458615
2012-01-09 16:45:41 51°15.339 2°53.917 11.6265 0.04374 0.292889 -2.458615
2012-01-09 16:46:41 51°15.28 2°53.973 11.7433 0.043534 0.290883 -2.458615
2012-01-09 16:47:41 51°15.219 2°54.045 11.81 0.043225 0.288164 -2.458615
2012-01-09 16:48:41 51°15.137 2°54.152 11.9237 0.042917 0.285485 -2.458615
2012-01-09 16:49:41 51°15.029 2°54.31 11.9984 0.042711 0.283508 -2.458615
2012-01-09 16:50:41 51°14.894 2°54.507 11.9583 0.042506 0.28154 -2.458615
2012-01-09 16:51:41 51°14.744 2°54.721 12.0642 0.0423 0.279626 -2.458615
2012-01-09 16:52:41 51°14.592 2°54.924 12.1664 0.042094 0.277694 -2.458615
2012-01-09 16:53:42 51°14.438 2°55.121 12.2672 0.041889 0.275839 -2.458615
2012-01-09 16:54:43 51°14.294 2°55.266 12.32 0.041683 0.273954 -2.458615
2012-01-09 16:55:44 51°14.158 2°55.388 12.4191 0.04158 0.272796 -2.458615
2012-01-09 16:56:44 51°14.024 2°55.485 12.473 0.041375 0.270942 -2.458615
2012-01-09 16:57:44 51°13.917 2°55.562 12.556 0.041169 0.269084 -2.458615
2012-01-09 16:58:44 51°13.826 2°55.631 12.629 0.040963 0.267245 -2.458615
2012-01-09 16:59:44 51°13.749 2°55.722 12.6906 0.040861 0.26609 -2.458615
2012-01-09 17:00:44 51°13.692 2°55.828 12.7228 0.040655 0.264241 -2.458615
2012-01-09 17:01:44 51°13.656 2°55.922 12.804 0.040552 0.263091 -2.458615
2012-01-09 17:02:44 51°13.641 2°56.006 12.8793 0.040449 0.26194 -2.458615